Merrill, Iowa
Current Conditions -  °F | °C
As of 12:35 AM on Wednesday 26 Nov 2014 (Local Time) from KLRJ Reporting Station
Light Snow Light Snow  
Wind Chill: 34°   Ceiling: 300
Heat Index: 34°   Visibility: 1.7mi
Dew Point: 32°   Wind: 0mph
Humidity: 93%   Direction: NA
Pressure: 29.82"   Gusts: NA
Location:  42.72°N, 96.25°W
Report Text: KLRJ 260635Z AUTO 00000KT 1 3/4SM -SN OVC003 01/00 A2982 RMK AO2
Loading
Personal Weather Stations






























Interactive Weather Map New forecast layout! Learn more

10-Day Weather Forecast

Advertisements
Track Severe Weather on mobile